BarenTS Sea — 9VAP5 — position and weather

sailwx.info

Track history (hours):
 
Tides and Currents Weather Stations Pressure Air Temp Water Temp Dewpoint Dewpoint Depression Visibility Wind Speed Wind Dir Waves Ship Positions

BarenTS Sea

Last reported at 2014-Sep-21 17:17 UTC. Time now 2014-Sep-21 18:08 UTC.
Position N 43°07' E 004°35'.

Length 248 m; draft 8.5 m.

Type: Tanker. MMSI: 563909000.

Date/timePositionNaut miles runAvg speedWind from/ knotsBaromVisibWave heightAir tempDewpointWater temp
2014-Sep-21 17:17N 43°07' E 004°35'0 0.0
2014-Sep-21 16:32N 43°07' E 004°35'0 0.2
2014-Sep-21 15:34N 43°07' E 004°35'7 6.9
2014-Sep-21 14:33N 43°09' E 004°44'1010.5
2014-Sep-21 13:33N 43°11' E 004°58'7 7.3
2014-Sep-21 12:33N 43°19' E 004°59'6 5.7
2014-Sep-21 11:33N 43°24' E 004°55'2 1.7
2014-Sep-21 10:33N 43°25' E 004°53'0 0.0
2014-Sep-21 09:33N 43°25' E 004°53'0 0.0
2014-Sep-21 08:24N 43°25' E 004°53'0 0.0
2014-Sep-21 07:30N 43°25' E 004°53'0 0.0
2014-Sep-21 06:30N 43°25' E 004°53'0 0.0
2014-Sep-21 05:33N 43°25' E 004°53'0 0.0
2014-Sep-21 04:24N 43°25' E 004°53'0 0.0
2014-Sep-21 03:27N 43°25' E 004°53'0 0.0
2014-Sep-21 02:24N 43°25' E 004°53'0 0.0
2014-Sep-21 01:27N 43°25' E 004°53'0 0.0
2014-Sep-21 00:30N 43°25' E 004°53'0 0.0
2014-Sep-20 23:30N 43°25' E 004°53'0 0.0
2014-Sep-20 22:30N 43°25' E 004°53'0 0.0
2014-Sep-20 21:24N 43°25' E 004°53'0 0.0
2014-Sep-20 20:30N 43°25' E 004°53'0 0.0
2014-Sep-20 19:33N 43°25' E 004°53'0 0.0
2014-Sep-20 18:33N 43°25' E 004°53'0 0.0
2014-Sep-20 17:30N 43°25' E 004°53'0 0.0
2014-Sep-20 16:30N 43°25' E 004°53'0 0.0
2014-Sep-20 15:30N 43°25' E 004°53'0 0.0
2014-Sep-20 14:24N 43°25' E 004°53'0 0.0
2014-Sep-20 13:27N 43°25' E 004°53'0 0.0
2014-Sep-20 12:33N 43°25' E 004°53'0 0.0
2014-Sep-20 11:24N 43°25' E 004°53'0 0.0
2014-Sep-20 10:24N 43°25' E 004°53'0 0.0
2014-Sep-20 09:33N 43°25' E 004°53'0 0.0
2014-Sep-20 08:33N 43°25' E 004°53'0 0.0
2014-Sep-20 07:33N 43°25' E 004°53'0 0.0
2014-Sep-20 06:33N 43°25' E 004°53'0 0.0
2014-Sep-20 05:30N 43°25' E 004°53'0 0.0
2014-Sep-20 04:33N 43°25' E 004°53'0 0.0
2014-Sep-20 03:33N 43°25' E 004°53'0 0.0
2014-Sep-20 02:30N 43°25' E 004°53'0 0.0
2014-Sep-20 01:30N 43°25' E 004°53'0 0.0
2014-Sep-20 00:30N 43°25' E 004°53'0 0.0
2014-Sep-19 23:24N 43°25' E 004°53'0 0.0
2014-Sep-19 22:30N 43°25' E 004°53'0 0.0
2014-Sep-19 21:30N 43°25' E 004°53'0 0.0
2014-Sep-19 20:30N 43°25' E 004°53'0 0.0
2014-Sep-19 19:18N 43°25' E 004°53'2 3.2
2014-Sep-19 18:33N 43°24' E 004°56'2 2.2
2014-Sep-19 17:33N 43°23' E 004°59'0 0.0
2014-Sep-19 16:33N 43°23' E 004°59'0 0.0
2014-Sep-19 15:33N 43°23' E 004°59'0 0.0
2014-Sep-19 14:33N 43°23' E 004°59'0 0.0
2014-Sep-19 13:33N 43°23' E 004°59'0 0.0
2014-Sep-19 12:33N 43°23' E 004°59'0 0.0
2014-Sep-19 11:33N 43°23' E 004°59'0 0.0
2014-Sep-19 10:33N 43°23' E 004°59'0 0.0
2014-Sep-19 09:33N 43°23' E 004°59'0 0.0
2014-Sep-19 08:33N 43°23' E 004°59'0 0.1
2014-Sep-19 07:33N 43°23' E 004°59'0 0.0
2014-Sep-19 06:33N 43°23' E 004°59'0 0.0
2014-Sep-19 05:33N 43°23' E 004°59'0 0.0
2014-Sep-19 04:33N 43°23' E 004°59'0 0.0
2014-Sep-19 03:33N 43°23' E 004°59'0 0.0
2014-Sep-19 02:33N 43°23' E 004°59'0 0.0
2014-Sep-19 01:33N 43°23' E 004°59'0 0.0
2014-Sep-19 00:33N 43°23' E 004°59'0 0.0
2014-Sep-18 23:33N 43°23' E 004°59'0 0.0
2014-Sep-18 22:33N 43°23' E 004°59'0 0.0
2014-Sep-18 21:33N 43°23' E 004°59'0 0.0
2014-Sep-18 20:33N 43°23' E 004°59'0 0.1
2014-Sep-18 19:33N 43°23' E 004°59'3 3.0
2014-Sep-18 18:33N 43°20' E 004°59'6 5.9
2014-Sep-18 17:33N 43°14' E 005°02'6 5.9
2014-Sep-18 16:33N 43°08' E 005°04'7 6.7
2014-Sep-18 15:33N 43°03' E 005°10'23410.6
2014-Sep-17 17:29N 39°33' E 007°28'2110.6
2014-Sep-17 15:33N 39°15' E 007°40'4511.2
2014-Sep-17 11:30N 38°38' E 008°13'1110.9
2014-Sep-17 10:32N 38°33' E 008°25'1110.9
2014-Sep-17 09:29N 38°28' E 008°39'2210.9
2014-Sep-17 07:27N 38°19' E 009°05'7110.3
2014-Sep-17 00:30N 37°50' E 010°27'10610.2
2014-Sep-16 14:06N 36°55' E 012°22'10810.2
2014-Sep-16 03:32N 35°22' E 013°30'2110.5
2014-Sep-16 01:32N 35°01' E 013°30'2110.7
2014-Sep-15 23:33N 34°39' E 013°30'1110.5
2014-Sep-15 22:33N 34°29' E 013°30'1010.3
2014-Sep-15 21:33N 34°21' E 013°22'1110.7
2014-Sep-15 20:33N 34°13' E 013°14'1110.9
2014-Sep-15 19:33N 34°04' E 013°06'1110.6
2014-Sep-15 18:33N 33°56' E 012°58'1410.2
2014-Sep-15 17:13N 33°44' E 012°50'810.3
2014-Sep-15 16:28N 33°37' E 012°46'910.2
2014-Sep-15 15:33N 33°28' E 012°41'10 9.9
2014-Sep-15 14:33N 33°19' E 012°36'1010.3
2014-Sep-15 13:33N 33°11' E 012°30'1010.4
2014-Sep-15 12:33N 33°03' E 012°21'10 9.6
2014-Sep-15 11:33N 32°55' E 012°16'1 0.5
2014-Sep-15 08:33N 32°54' E 012°14'1 0.0
2014-Sep-14 07:33N 32°54' E 012°13'2 1.7
2014-Sep-14 06:29N 32°56' E 012°13'0 0.5
2014-Sep-14 05:34N 32°56' E 012°14'44 3.3
2014-Sep-13 16:22N 33°29' E 012°49'8 9.2
2014-Sep-13 15:30N 33°34' E 012°56'80 8.9
2014-Sep-13 06:33N 34°48' E 013°30'21 9.9
2014-Sep-13 04:28N 35°09' E 013°25'15 6.3
2014-Sep-13 02:11N 35°23' E 013°23'1 0.4
2014-Sep-13 00:28N 35°23' E 013°22'1 0.3
2014-Sep-12 22:25N 35°22' E 013°22'0 0.3
2014-Sep-12 21:33N 35°22' E 013°21'3 0.5
2014-Sep-12 15:11N 35°20' E 013°18'0 0.6
2014-Sep-12 14:33N 35°20' E 013°18'15 2.0
2014-Sep-12 07:14N 35°28' E 013°02'0 0.6
2014-Sep-12 06:33N 35°28' E 013°03'1 0.6
2014-Sep-12 05:29N 35°28' E 013°03'0 0.5
2014-Sep-12 04:31N 35°29' E 013°04'0 0.4
2014-Sep-12 03:33N 35°29' E 013°04'  
Track history (hours):
 
Tides and Currents Weather Stations Pressure Air Temp Water Temp Dewpoint Dewpoint Depression Visibility Wind Speed Wind Dir Waves Ship Positions

BarenTS Sea

Last reported at 2014-Sep-21 17:17 UTC. Time now 2014-Sep-21 18:08 UTC.
Position N 43°07' E 004°35'.

Length 248 m; draft 8.5 m.

Type: Tanker. MMSI: 563909000.

Date/timePositionNaut miles runAvg speedWind from/ knotsBaromVisibWave heightAir tempDewpointWater temp
2014-Sep-21 17:17N 43°07' E 004°35'0 0.0
2014-Sep-21 16:32N 43°07' E 004°35'0 0.2
2014-Sep-21 15:34N 43°07' E 004°35'7 6.9
2014-Sep-21 14:33N 43°09' E 004°44'1010.5
2014-Sep-21 13:33N 43°11' E 004°58'7 7.3
2014-Sep-21 12:33N 43°19' E 004°59'6 5.7
2014-Sep-21 11:33N 43°24' E 004°55'2 1.7
2014-Sep-21 10:33N 43°25' E 004°53'0 0.0
2014-Sep-21 09:33N 43°25' E 004°53'0 0.0
2014-Sep-21 08:24N 43°25' E 004°53'0 0.0
2014-Sep-21 07:30N 43°25' E 004°53'0 0.0
2014-Sep-21 06:30N 43°25' E 004°53'0 0.0
2014-Sep-21 05:33N 43°25' E 004°53'0 0.0
2014-Sep-21 04:24N 43°25' E 004°53'0 0.0
2014-Sep-21 03:27N 43°25' E 004°53'0 0.0
2014-Sep-21 02:24N 43°25' E 004°53'0 0.0
2014-Sep-21 01:27N 43°25' E 004°53'0 0.0
2014-Sep-21 00:30N 43°25' E 004°53'0 0.0
2014-Sep-20 23:30N 43°25' E 004°53'0 0.0
2014-Sep-20 22:30N 43°25' E 004°53'0 0.0
2014-Sep-20 21:24N 43°25' E 004°53'0 0.0
2014-Sep-20 20:30N 43°25' E 004°53'0 0.0
2014-Sep-20 19:33N 43°25' E 004°53'0 0.0
2014-Sep-20 18:33N 43°25' E 004°53'0 0.0
2014-Sep-20 17:30N 43°25' E 004°53'0 0.0
2014-Sep-20 16:30N 43°25' E 004°53'0 0.0
2014-Sep-20 15:30N 43°25' E 004°53'0 0.0
2014-Sep-20 14:24N 43°25' E 004°53'0 0.0
2014-Sep-20 13:27N 43°25' E 004°53'0 0.0
2014-Sep-20 12:33N 43°25' E 004°53'0 0.0
2014-Sep-20 11:24N 43°25' E 004°53'0 0.0
2014-Sep-20 10:24N 43°25' E 004°53'0 0.0
2014-Sep-20 09:33N 43°25' E 004°53'0 0.0
2014-Sep-20 08:33N 43°25' E 004°53'0 0.0
2014-Sep-20 07:33N 43°25' E 004°53'0 0.0
2014-Sep-20 06:33N 43°25' E 004°53'0 0.0
2014-Sep-20 05:30N 43°25' E 004°53'0 0.0
2014-Sep-20 04:33N 43°25' E 004°53'0 0.0
2014-Sep-20 03:33N 43°25' E 004°53'0 0.0
2014-Sep-20 02:30N 43°25' E 004°53'0 0.0
2014-Sep-20 01:30N 43°25' E 004°53'0 0.0
2014-Sep-20 00:30N 43°25' E 004°53'0 0.0
2014-Sep-19 23:24N 43°25' E 004°53'0 0.0
2014-Sep-19 22:30N 43°25' E 004°53'0 0.0
2014-Sep-19 21:30N 43°25' E 004°53'0 0.0
2014-Sep-19 20:30N 43°25' E 004°53'0 0.0
2014-Sep-19 19:18N 43°25' E 004°53'2 3.2
2014-Sep-19 18:33N 43°24' E 004°56'2 2.2
2014-Sep-19 17:33N 43°23' E 004°59'0 0.0
2014-Sep-19 16:33N 43°23' E 004°59'0 0.0
2014-Sep-19 15:33N 43°23' E 004°59'0 0.0
2014-Sep-19 14:33N 43°23' E 004°59'0 0.0
2014-Sep-19 13:33N 43°23' E 004°59'0 0.0
2014-Sep-19 12:33N 43°23' E 004°59'0 0.0
2014-Sep-19 11:33N 43°23' E 004°59'0 0.0
2014-Sep-19 10:33N 43°23' E 004°59'0 0.0
2014-Sep-19 09:33N 43°23' E 004°59'0 0.0
2014-Sep-19 08:33N 43°23' E 004°59'0 0.1
2014-Sep-19 07:33N 43°23' E 004°59'0 0.0
2014-Sep-19 06:33N 43°23' E 004°59'0 0.0
2014-Sep-19 05:33N 43°23' E 004°59'0 0.0
2014-Sep-19 04:33N 43°23' E 004°59'0 0.0
2014-Sep-19 03:33N 43°23' E 004°59'0 0.0
2014-Sep-19 02:33N 43°23' E 004°59'0 0.0
2014-Sep-19 01:33N 43°23' E 004°59'0 0.0
2014-Sep-19 00:33N 43°23' E 004°59'0 0.0
2014-Sep-18 23:33N 43°23' E 004°59'0 0.0
2014-Sep-18 22:33N 43°23' E 004°59'0 0.0
2014-Sep-18 21:33N 43°23' E 004°59'0 0.0
2014-Sep-18 20:33N 43°23' E 004°59'0 0.1
2014-Sep-18 19:33N 43°23' E 004°59'3 3.0
2014-Sep-18 18:33N 43°20' E 004°59'6 5.9
2014-Sep-18 17:33N 43°14' E 005°02'6 5.9
2014-Sep-18 16:33N 43°08' E 005°04'7 6.7
2014-Sep-18 15:33N 43°03' E 005°10'23410.6
2014-Sep-17 17:29N 39°33' E 007°28'2110.6
2014-Sep-17 15:33N 39°15' E 007°40'4511.2
2014-Sep-17 11:30N 38°38' E 008°13'1110.9
2014-Sep-17 10:32N 38°33' E 008°25'1110.9
2014-Sep-17 09:29N 38°28' E 008°39'2210.9
2014-Sep-17 07:27N 38°19' E 009°05'7110.3
2014-Sep-17 00:30N 37°50' E 010°27'10610.2
2014-Sep-16 14:06N 36°55' E 012°22'10810.2
2014-Sep-16 03:32N 35°22' E 013°30'2110.5
2014-Sep-16 01:32N 35°01' E 013°30'2110.7
2014-Sep-15 23:33N 34°39' E 013°30'1110.5
2014-Sep-15 22:33N 34°29' E 013°30'1010.3
2014-Sep-15 21:33N 34°21' E 013°22'1110.7
2014-Sep-15 20:33N 34°13' E 013°14'1110.9
2014-Sep-15 19:33N 34°04' E 013°06'1110.6
2014-Sep-15 18:33N 33°56' E 012°58'1410.2
2014-Sep-15 17:13N 33°44' E 012°50'810.3
2014-Sep-15 16:28N 33°37' E 012°46'910.2
2014-Sep-15 15:33N 33°28' E 012°41'10 9.9
2014-Sep-15 14:33N 33°19' E 012°36'1010.3
2014-Sep-15 13:33N 33°11' E 012°30'1010.4
2014-Sep-15 12:33N 33°03' E 012°21'10 9.6
2014-Sep-15 11:33N 32°55' E 012°16'1 0.5
2014-Sep-15 08:33N 32°54' E 012°14'1 0.0
2014-Sep-14 07:33N 32°54' E 012°13'2 1.7
2014-Sep-14 06:29N 32°56' E 012°13'0 0.5
2014-Sep-14 05:34N 32°56' E 012°14'44 3.3
2014-Sep-13 16:22N 33°29' E 012°49'8 9.2
2014-Sep-13 15:30N 33°34' E 012°56'80 8.9
2014-Sep-13 06:33N 34°48' E 013°30'21 9.9
2014-Sep-13 04:28N 35°09' E 013°25'15 6.3
2014-Sep-13 02:11N 35°23' E 013°23'1 0.4
2014-Sep-13 00:28N 35°23' E 013°22'1 0.3
2014-Sep-12 22:25N 35°22' E 013°22'0 0.3
2014-Sep-12 21:33N 35°22' E 013°21'3 0.5
2014-Sep-12 15:11N 35°20' E 013°18'0 0.6
2014-Sep-12 14:33N 35°20' E 013°18'15 2.0
2014-Sep-12 07:14N 35°28' E 013°02'0 0.6
2014-Sep-12 06:33N 35°28' E 013°03'1 0.6
2014-Sep-12 05:29N 35°28' E 013°03'0 0.5
2014-Sep-12 04:31N 35°29' E 013°04'0 0.4
2014-Sep-12 03:33N 35°29' E 013°04'  

Dump ship's entire track history